createdAt,value
2019-03-29T00:00:17.759Z,99.90
2019-03-29T00:02:43.949Z,99.90
2019-03-29T00:05:10.112Z,99.90
2019-03-29T00:07:39.914Z,99.90
2019-03-29T00:10:05.481Z,99.90
2019-03-29T00:12:31.838Z,99.90
2019-03-29T00:14:57.961Z,99.90
2019-03-29T00:17:24.032Z,99.90
2019-03-29T00:19:50.162Z,99.90
2019-03-29T00:22:16.309Z,99.90
2019-03-29T00:24:42.495Z,99.90
2019-03-29T00:27:08.588Z,99.90
2019-03-29T00:29:34.674Z,99.90
2019-03-29T00:32:00.822Z,99.90
2019-03-29T00:34:26.938Z,99.90
2019-03-29T00:36:53.196Z,99.90
2019-03-29T00:39:19.298Z,99.90
2019-03-29T00:41:45.425Z,99.90
2019-03-29T00:44:11.587Z,99.90
2019-03-29T00:46:37.903Z,99.90
2019-03-29T00:49:04.230Z,99.90
2019-03-29T00:51:30.466Z,99.90
2019-03-29T00:53:56.652Z,99.90
2019-03-29T00:56:22.757Z,99.90
2019-03-29T00:58:49.073Z,99.90
2019-03-29T01:01:15.532Z,99.90
2019-03-29T01:03:41.665Z,99.90
2019-03-29T01:06:07.985Z,99.90
2019-03-29T01:08:34.074Z,99.90
2019-03-29T01:11:00.178Z,99.90
2019-03-29T01:13:26.318Z,99.90
2019-03-29T01:15:52.478Z,99.90
2019-03-29T01:18:18.612Z,99.90
2019-03-29T01:20:45.254Z,99.90
2019-03-29T01:23:11.417Z,99.90
2019-03-29T01:25:37.684Z,99.90
2019-03-29T01:28:03.763Z,99.90
2019-03-29T01:30:29.951Z,99.90
2019-03-29T01:32:56.061Z,99.90
2019-03-29T01:35:22.153Z,99.90
2019-03-29T01:37:48.301Z,99.90
2019-03-29T01:40:14.653Z,99.90
2019-03-29T01:42:40.843Z,99.90
2019-03-29T01:45:07.675Z,99.90
2019-03-29T01:47:33.795Z,99.90
2019-03-29T01:49:59.868Z,99.90
2019-03-29T01:52:25.975Z,99.90
2019-03-29T01:54:52.097Z,99.90
2019-03-29T01:57:18.221Z,99.90
2019-03-29T01:59:44.301Z,99.90
2019-03-29T02:02:10.397Z,99.90
2019-03-29T02:04:36.513Z,99.90
2019-03-29T02:07:02.586Z,99.90
2019-03-29T02:09:28.713Z,99.90
2019-03-29T02:11:54.848Z,99.90
2019-03-29T02:14:21.046Z,99.90
2019-03-29T02:16:47.110Z,99.90
2019-03-29T02:19:13.218Z,99.90
2019-03-29T02:21:39.393Z,99.90
2019-03-29T02:24:05.500Z,99.90
2019-03-29T02:26:31.621Z,99.90
2019-03-29T02:28:57.861Z,99.90
2019-03-29T02:31:26.154Z,99.90
2019-03-29T02:33:52.076Z,99.90
2019-03-29T02:36:18.245Z,99.90
2019-03-29T02:38:54.891Z,99.90
2019-03-29T02:41:12.452Z,99.90
2019-03-29T02:43:38.966Z,99.90
2019-03-29T02:46:05.311Z,99.90
2019-03-29T02:48:31.499Z,99.90
2019-03-29T02:50:57.623Z,99.90
2019-03-29T02:53:23.807Z,99.90
2019-03-29T02:55:49.914Z,99.90
2019-03-29T02:58:15.998Z,99.90
2019-03-29T03:00:42.155Z,99.90
2019-03-29T03:03:08.342Z,99.90
2019-03-29T03:05:34.576Z,99.90
2019-03-29T03:08:00.810Z,99.90
2019-03-29T03:10:27.340Z,99.90
2019-03-29T03:12:53.521Z,99.90
2019-03-29T03:15:19.647Z,99.90
2019-03-29T03:17:45.864Z,99.90
2019-03-29T03:20:15.497Z,99.90
2019-03-29T03:22:41.452Z,99.90
2019-03-29T03:25:07.993Z,99.90
2019-03-29T03:27:34.832Z,99.90
2019-03-29T03:30:01.305Z,99.90
2019-03-29T03:32:27.448Z,99.90
2019-03-29T03:34:53.615Z,99.90
2019-03-29T03:37:19.900Z,99.90
2019-03-29T03:39:46.133Z,99.90
2019-03-29T03:42:12.308Z,99.90
2019-03-29T03:44:38.445Z,99.90
2019-03-29T03:47:04.654Z,99.90
2019-03-29T03:49:30.758Z,99.90
2019-03-29T03:51:57.488Z,99.90
2019-03-29T03:54:23.663Z,99.90
2019-03-29T03:56:49.971Z,99.90
2019-03-29T03:59:16.536Z,99.90
2019-03-29T04:01:43.023Z,99.90
2019-03-29T04:04:09.348Z,99.90
2019-03-29T04:06:35.474Z,99.90
2019-03-29T04:09:01.722Z,99.90
2019-03-29T04:11:28.113Z,99.90
2019-03-29T04:13:54.312Z,99.90
2019-03-29T04:16:20.381Z,99.90
2019-03-29T04:18:46.550Z,99.90
2019-03-29T04:21:12.705Z,99.90
2019-03-29T04:23:38.812Z,99.90
2019-03-29T04:26:05.234Z,99.90
2019-03-29T04:28:31.402Z,99.90
2019-03-29T04:30:57.591Z,99.90
2019-03-29T04:33:23.717Z,99.90
2019-03-29T04:35:50.087Z,99.90
2019-03-29T04:38:16.439Z,99.90
2019-03-29T04:40:42.614Z,99.90
2019-03-29T04:43:08.990Z,99.90
2019-03-29T04:45:35.169Z,99.90
2019-03-29T04:48:01.264Z,99.90
2019-03-29T04:50:27.454Z,99.90
2019-03-29T04:52:53.536Z,99.90
2019-03-29T04:55:19.660Z,99.90
2019-03-29T04:57:45.967Z,99.90
2019-03-29T05:00:12.826Z,99.90
2019-03-29T05:02:38.930Z,99.90
2019-03-29T05:05:05.648Z,99.90
2019-03-29T05:07:31.865Z,99.90
2019-03-29T05:09:57.950Z,99.90
2019-03-29T05:12:24.072Z,99.90
2019-03-29T05:14:50.280Z,99.90
2019-03-29T05:17:16.368Z,99.90
2019-03-29T05:19:44.656Z,99.90
2019-03-29T05:22:10.532Z,99.90
2019-03-29T05:24:36.776Z,99.90
2019-03-29T05:27:03.066Z,99.90
2019-03-29T05:29:29.210Z,99.90
2019-03-29T05:31:55.433Z,99.90
2019-03-29T05:34:21.629Z,99.90
2019-03-29T05:36:47.720Z,99.90
2019-03-29T05:39:13.894Z,99.90
2019-03-29T05:41:40.118Z,99.90
2019-03-29T05:44:06.237Z,99.90
2019-03-29T05:46:32.337Z,99.90
2019-03-29T05:48:58.464Z,99.90
2019-03-29T05:51:24.545Z,99.90
2019-03-29T05:53:50.666Z,99.90
2019-03-29T05:56:16.828Z,99.90
2019-03-29T05:58:43.031Z,99.90
2019-03-29T06:01:09.116Z,99.90
2019-03-29T06:03:35.227Z,99.90
2019-03-29T06:06:01.302Z,99.90
2019-03-29T06:08:27.433Z,99.90
2019-03-29T06:10:53.546Z,99.90
2019-03-29T06:13:19.679Z,99.90
2019-03-29T06:15:45.901Z,99.90
2019-03-29T06:18:12.032Z,99.90
2019-03-29T06:20:38.121Z,99.90
2019-03-29T06:23:04.239Z,99.90
2019-03-29T06:25:30.490Z,99.90
2019-03-29T06:27:56.690Z,99.90
2019-03-29T06:30:27.843Z,99.90
2019-03-29T06:32:54.073Z,99.90
2019-03-29T06:35:20.412Z,99.90
2019-03-29T06:37:46.937Z,99.90
2019-03-29T06:40:19.946Z,99.90
2019-03-29T06:42:46.035Z,99.90
2019-03-29T06:45:12.391Z,99.90
2019-03-29T06:47:38.553Z,99.90
2019-03-29T06:50:05.793Z,99.90
2019-03-29T06:52:31.945Z,99.90
2019-03-29T06:55:18.119Z,99.90
2019-03-29T06:57:44.316Z,99.90
2019-03-29T07:00:10.581Z,99.90
2019-03-29T07:02:36.725Z,99.90
2019-03-29T07:05:04.725Z,99.90
2019-03-29T07:07:30.819Z,99.90
2019-03-29T07:09:56.957Z,99.90
2019-03-29T07:12:23.153Z,99.90
2019-03-29T07:14:49.258Z,99.90
2019-03-29T07:17:15.333Z,99.90
2019-03-29T07:19:41.462Z,99.90
2019-03-29T07:22:07.569Z,99.90
2019-03-29T07:24:33.682Z,99.90
2019-03-29T07:26:59.806Z,99.90
2019-03-29T07:29:25.999Z,99.90
2019-03-29T07:31:53.285Z,99.90
2019-03-29T07:34:19.670Z,99.90
2019-03-29T07:36:45.903Z,99.90
2019-03-29T07:39:12.120Z,99.90
2019-03-29T07:41:38.269Z,99.90
2019-03-29T07:44:04.520Z,99.90
2019-03-29T07:46:30.735Z,99.90
2019-03-29T07:48:56.806Z,99.90
2019-03-29T07:51:22.955Z,99.90
2019-03-29T07:53:49.171Z,99.90
2019-03-29T07:56:15.311Z,99.90
2019-03-29T07:58:41.553Z,99.90
2019-03-29T08:01:08.518Z,99.90
2019-03-29T08:03:34.965Z,99.90
2019-03-29T08:06:01.087Z,99.90
2019-03-29T08:08:32.336Z,99.90
2019-03-29T08:10:55.199Z,99.90
2019-03-29T08:13:21.829Z,99.90
2019-03-29T08:15:48.000Z,99.90
2019-03-29T08:18:14.143Z,99.90
2019-03-29T08:20:43.862Z,99.90
2019-03-29T08:23:08.282Z,99.90
2019-03-29T08:25:34.421Z,99.90
2019-03-29T08:28:00.617Z,99.90
2019-03-29T08:30:26.699Z,99.90
2019-03-29T08:32:53.036Z,99.90
2019-03-29T08:35:19.215Z,99.90
2019-03-29T08:37:45.405Z,99.90
2019-03-29T08:40:12.068Z,99.90
2019-03-29T08:42:38.250Z,99.90
2019-03-29T08:45:05.293Z,99.90
2019-03-29T08:47:31.470Z,99.90
2019-03-29T08:49:57.560Z,99.90
2019-03-29T08:52:23.680Z,99.90
2019-03-29T08:54:51.340Z,99.90
2019-03-29T08:57:17.767Z,99.90
2019-03-29T08:59:43.942Z,99.90
2019-03-29T09:02:10.254Z,99.90
2019-03-29T09:04:36.812Z,99.90
2019-03-29T09:07:03.436Z,99.90
2019-03-29T09:09:29.574Z,99.90
2019-03-29T09:11:55.806Z,99.90
2019-03-29T09:14:21.960Z,99.90
2019-03-29T09:16:48.156Z,99.90
2019-03-29T09:19:14.242Z,99.90
2019-03-29T09:21:40.354Z,99.90
2019-03-29T09:24:20.757Z,99.90
2019-03-29T09:26:34.617Z,99.90
2019-03-29T09:29:00.734Z,99.90
2019-03-29T09:31:26.820Z,99.90
2019-03-29T09:33:53.030Z,99.90
2019-03-29T09:36:19.135Z,99.90
2019-03-29T09:38:45.247Z,99.90
2019-03-29T09:41:11.482Z,99.90
2019-03-29T09:43:37.726Z,99.90
2019-03-29T09:46:03.845Z,99.90
2019-03-29T09:48:29.951Z,99.90
2019-03-29T09:50:56.146Z,99.90
2019-03-29T09:53:22.300Z,99.90
2019-03-29T09:55:48.388Z,99.90
2019-03-29T09:58:16.545Z,99.90
2019-03-29T10:00:42.580Z,99.90
2019-03-29T10:03:08.651Z,99.90
2019-03-29T10:05:34.788Z,99.90
2019-03-29T10:08:01.007Z,99.90
2019-03-29T10:10:27.072Z,99.90
2019-03-29T10:12:53.218Z,99.90
2019-03-29T10:15:19.411Z,99.90
2019-03-29T10:17:45.575Z,99.90
2019-03-29T10:20:12.248Z,99.90
2019-03-29T10:22:38.360Z,99.90
2019-03-29T10:25:18.337Z,99.90
2019-03-29T10:27:33.719Z,99.90
2019-03-29T10:29:59.841Z,99.90
2019-03-29T10:32:26.006Z,99.90
2019-03-29T10:34:52.149Z,99.90
2019-03-29T10:37:18.518Z,99.90
2019-03-29T10:39:44.745Z,99.90
2019-03-29T10:42:11.042Z,99.90
2019-03-29T10:44:37.203Z,99.90
2019-03-29T10:47:03.383Z,99.90
2019-03-29T10:49:29.640Z,99.90
2019-03-29T10:51:55.967Z,99.90
2019-03-29T10:54:22.162Z,99.90
2019-03-29T10:56:48.257Z,99.90
2019-03-29T10:59:26.620Z,99.90
2019-03-29T11:01:42.506Z,99.90
2019-03-29T11:04:08.656Z,99.90
2019-03-29T11:06:35.005Z,99.90
2019-03-29T11:09:01.160Z,99.90
2019-03-29T11:11:27.540Z,99.90
2019-03-29T11:13:56.510Z,99.90
2019-03-29T11:16:21.800Z,99.90
2019-03-29T11:18:47.918Z,99.90
2019-03-29T11:21:14.118Z,99.90
2019-03-29T11:23:40.245Z,99.90
2019-03-29T11:26:06.470Z,99.90
2019-03-29T11:28:32.649Z,99.90
2019-03-29T11:30:58.744Z,99.90
2019-03-29T11:33:24.898Z,99.90
2019-03-29T11:35:51.073Z,99.90
2019-03-29T11:38:17.341Z,99.90
2019-03-29T11:40:43.529Z,99.90
2019-03-29T11:43:09.798Z,99.90
2019-03-29T11:45:36.058Z,99.90
2019-03-29T11:48:08.920Z,99.90
2019-03-29T11:50:31.315Z,99.90
2019-03-29T11:53:17.351Z,99.90
2019-03-29T11:55:43.559Z,99.90
2019-03-29T11:58:09.863Z,99.90
2019-03-29T12:00:37.503Z,99.90
2019-03-29T12:03:04.151Z,99.90
2019-03-29T12:05:30.505Z,99.90
2019-03-29T12:07:56.695Z,99.90
2019-03-29T12:10:23.855Z,99.90
2019-03-29T12:12:50.142Z,99.90
2019-03-29T12:15:16.523Z,99.90
2019-03-29T12:17:42.845Z,99.90
2019-03-29T12:20:09.229Z,99.90
2019-03-29T12:22:35.646Z,99.90
2019-03-29T12:25:02.645Z,99.90
2019-03-29T12:27:28.792Z,99.90
2019-03-29T12:29:54.961Z,99.90
2019-03-29T12:32:21.135Z,99.90
2019-03-29T12:34:47.347Z,99.90
2019-03-29T12:37:13.517Z,99.90
2019-03-29T12:39:39.705Z,99.90
2019-03-29T12:42:05.929Z,99.90
2019-03-29T12:44:32.138Z,99.90
2019-03-29T12:46:58.233Z,99.90
2019-03-29T12:49:24.349Z,99.90
2019-03-29T12:51:50.457Z,99.90
2019-03-29T12:54:16.709Z,99.90
2019-03-29T12:56:43.021Z,99.90
2019-03-29T12:59:09.239Z,99.90
2019-03-29T13:01:39.886Z,99.90
2019-03-29T13:04:03.449Z,99.90
2019-03-29T13:06:29.647Z,99.90
2019-03-29T13:08:55.771Z,99.90
2019-03-29T13:11:22.013Z,99.90
2019-03-29T13:13:48.294Z,99.90
2019-03-29T13:16:14.452Z,99.90
2019-03-29T13:18:40.551Z,99.90
2019-03-29T13:21:06.624Z,99.90
2019-03-29T13:23:32.770Z,99.90
2019-03-29T13:25:58.855Z,99.90
2019-03-29T13:28:25.190Z,99.90
2019-03-29T13:30:51.280Z,99.90
2019-03-29T13:33:20.375Z,99.90
2019-03-29T13:35:45.486Z,99.90
2019-03-29T13:38:11.676Z,99.90
2019-03-29T13:40:37.942Z,99.90
2019-03-29T13:43:04.705Z,99.90
2019-03-29T13:45:30.946Z,99.90
2019-03-29T13:48:00.133Z,99.90
2019-03-29T13:50:26.271Z,99.90
2019-03-29T13:52:52.472Z,99.90
2019-03-29T13:55:18.630Z,99.90
2019-03-29T13:57:44.980Z,99.90
2019-03-29T14:00:11.868Z,99.90
2019-03-29T14:02:38.128Z,99.90
2019-03-29T14:05:04.714Z,99.60
2019-03-29T14:07:30.832Z,99.90
2019-03-29T14:09:56.978Z,99.90
2019-03-29T14:12:23.136Z,99.90
2019-03-29T14:14:49.322Z,98.80
2019-03-29T14:17:15.754Z,99.90
2019-03-29T14:19:41.932Z,99.90
2019-03-29T14:22:08.054Z,97.60
2019-03-29T14:24:34.360Z,99.90
2019-03-29T14:27:00.440Z,97.90
2019-03-29T14:29:26.548Z,97.20
2019-03-29T14:31:54.214Z,97.30
2019-03-29T14:34:20.581Z,98.30
2019-03-29T14:36:46.716Z,97.80
2019-03-29T14:39:12.872Z,99.60
2019-03-29T14:41:39.000Z,99.10
2019-03-29T14:44:05.186Z,97.20
2019-03-29T14:46:31.315Z,96.60
2019-03-29T14:48:57.554Z,96.30
2019-03-29T14:51:23.633Z,96.80
2019-03-29T14:53:49.744Z,95.40
2019-03-29T14:56:15.818Z,95.30
2019-03-29T14:58:41.976Z,93.70
2019-03-29T15:01:08.381Z,91.80
2019-03-29T15:03:34.515Z,90.70
2019-03-29T15:06:01.842Z,91.40
2019-03-29T15:08:28.467Z,92.10
2019-03-29T15:11:22.046Z,92.40
2019-03-29T15:13:42.547Z,94.00
2019-03-29T15:16:08.686Z,93.50
2019-03-29T15:18:34.809Z,93.90
2019-03-29T15:21:01.037Z,94.90
2019-03-29T15:23:27.183Z,95.50
2019-03-29T15:25:53.458Z,95.80
2019-03-29T15:28:19.594Z,97.60
2019-03-29T15:30:45.710Z,96.20
2019-03-29T15:33:12.006Z,95.20
2019-03-29T15:35:38.138Z,95.20
2019-03-29T15:38:04.478Z,96.40
2019-03-29T15:40:30.688Z,97.30
2019-03-29T15:42:56.843Z,97.10
2019-03-29T15:45:23.007Z,96.20
2019-03-29T15:47:49.112Z,96.60
2019-03-29T15:50:15.215Z,97.50
2019-03-29T15:52:41.339Z,96.80
2019-03-29T15:55:07.758Z,95.90
2019-03-29T15:57:35.773Z,96.40
2019-03-29T16:00:05.974Z,96.30
2019-03-29T16:02:32.116Z,96.80
2019-03-29T16:04:58.345Z,97.10
2019-03-29T16:07:24.566Z,96.80
2019-03-29T16:09:50.820Z,97.00
2019-03-29T16:12:17.065Z,97.50
2019-03-29T16:14:43.245Z,96.90
2019-03-29T16:17:09.319Z,97.30
2019-03-29T16:19:35.465Z,97.90
2019-03-29T16:22:01.555Z,97.50
2019-03-29T16:24:27.651Z,98.80
2019-03-29T16:26:53.739Z,99.00
2019-03-29T16:29:19.863Z,97.80
2019-03-29T16:31:46.302Z,98.10
2019-03-29T16:34:12.418Z,98.00
2019-03-29T16:36:38.736Z,98.70
2019-03-29T16:39:06.275Z,98.50
2019-03-29T16:41:32.495Z,98.20
2019-03-29T16:43:58.579Z,98.50
2019-03-29T16:46:24.687Z,98.90
2019-03-29T16:48:50.813Z,98.70
2019-03-29T16:51:17.047Z,98.40
2019-03-29T16:53:43.239Z,98.40
2019-03-29T16:56:11.912Z,98.80
2019-03-29T16:58:37.512Z,98.70
2019-03-29T17:01:03.731Z,99.30
2019-03-29T17:03:29.965Z,99.20
2019-03-29T17:05:56.082Z,99.90
2019-03-29T17:08:22.336Z,99.10
2019-03-29T17:10:48.509Z,99.50
2019-03-29T17:13:14.655Z,99.30
2019-03-29T17:15:40.857Z,99.30
2019-03-29T17:18:06.917Z,99.90
2019-03-29T17:20:33.035Z,99.90
2019-03-29T17:22:59.169Z,99.90
2019-03-29T17:25:25.258Z,99.90
2019-03-29T17:27:52.292Z,99.90
2019-03-29T17:30:22.468Z,99.90
2019-03-29T17:32:48.557Z,99.90
2019-03-29T17:35:14.641Z,99.90
2019-03-29T17:37:40.774Z,99.90
2019-03-29T17:40:07.442Z,99.90
2019-03-29T17:42:33.676Z,99.90
2019-03-29T17:44:59.864Z,99.90
2019-03-29T17:47:26.055Z,99.90
2019-03-29T17:49:52.177Z,99.90
2019-03-29T17:52:18.477Z,99.90
2019-03-29T17:54:44.695Z,99.90
2019-03-29T17:57:10.842Z,99.90
2019-03-29T17:59:37.003Z,99.90
2019-03-29T18:02:09.339Z,99.90
2019-03-29T18:04:31.341Z,99.90
2019-03-29T18:06:57.533Z,99.90
2019-03-29T18:09:23.676Z,99.90
2019-03-29T18:11:49.873Z,99.90
2019-03-29T18:14:15.962Z,99.90
2019-03-29T18:16:42.193Z,99.90
2019-03-29T18:19:08.391Z,99.90
2019-03-29T18:21:34.512Z,99.90
2019-03-29T18:24:00.747Z,99.90
2019-03-29T18:26:26.831Z,99.90
2019-03-29T18:28:53.101Z,99.90
2019-03-29T18:31:19.581Z,99.90
2019-03-29T18:33:45.881Z,99.90
2019-03-29T18:36:12.103Z,99.90
2019-03-29T18:38:39.364Z,99.90
2019-03-29T18:41:05.503Z,99.90
2019-03-29T18:43:31.725Z,99.90
2019-03-29T18:45:57.845Z,99.90
2019-03-29T18:48:23.954Z,99.90
2019-03-29T18:50:50.066Z,99.90
2019-03-29T18:53:16.142Z,99.90
2019-03-29T18:55:42.296Z,99.90
2019-03-29T18:58:08.594Z,99.90
2019-03-29T19:00:34.943Z,99.90
2019-03-29T19:03:01.577Z,99.90
2019-03-29T19:05:28.192Z,99.90
2019-03-29T19:07:54.454Z,99.90
2019-03-29T19:10:20.648Z,99.90
2019-03-29T19:12:46.779Z,99.90
2019-03-29T19:15:13.018Z,99.90
2019-03-29T19:17:39.235Z,99.90
2019-03-29T19:20:10.407Z,99.90
2019-03-29T19:22:33.498Z,99.90
2019-03-29T19:24:59.843Z,99.90
2019-03-29T19:27:25.969Z,99.90
2019-03-29T19:29:52.110Z,99.90
2019-03-29T19:32:18.196Z,99.90
2019-03-29T19:34:44.286Z,99.90
2019-03-29T19:37:10.396Z,99.90
2019-03-29T19:39:36.498Z,99.90
2019-03-29T19:42:02.948Z,99.90
2019-03-29T19:44:29.136Z,99.90
2019-03-29T19:46:55.261Z,99.90
2019-03-29T19:49:21.494Z,99.90
2019-03-29T19:51:47.617Z,99.90
2019-03-29T19:54:13.854Z,99.90
2019-03-29T19:56:39.951Z,99.90
2019-03-29T19:59:06.281Z,99.90
2019-03-29T20:01:32.694Z,99.90
2019-03-29T20:03:58.885Z,99.90
2019-03-29T20:06:25.830Z,99.90
2019-03-29T20:08:52.199Z,99.90
2019-03-29T20:11:18.451Z,99.90
2019-03-29T20:13:44.621Z,99.90
2019-03-29T20:16:10.832Z,99.90
2019-03-29T20:18:36.993Z,99.90
2019-03-29T20:21:03.171Z,99.90
2019-03-29T20:23:29.354Z,99.90
2019-03-29T20:25:55.606Z,99.90
2019-03-29T20:28:21.857Z,99.90
2019-03-29T20:30:47.992Z,99.90
2019-03-29T20:33:14.137Z,99.90
2019-03-29T20:35:40.371Z,99.90
2019-03-29T20:38:06.627Z,99.90
2019-03-29T20:40:32.901Z,99.90
2019-03-29T20:42:59.046Z,99.90
2019-03-29T20:45:25.187Z,99.90
2019-03-29T20:47:52.107Z,99.90
2019-03-29T20:50:18.657Z,99.90
2019-03-29T20:52:44.978Z,99.90
2019-03-29T20:55:11.462Z,99.90
2019-03-29T20:57:37.684Z,99.90
2019-03-29T21:00:06.067Z,99.90
2019-03-29T21:02:32.290Z,99.90
2019-03-29T21:04:58.388Z,99.90
2019-03-29T21:07:24.514Z,99.90
2019-03-29T21:09:50.627Z,99.90
2019-03-29T21:12:16.865Z,99.90
2019-03-29T21:14:43.094Z,99.90
2019-03-29T21:17:09.221Z,99.90
2019-03-29T21:19:35.339Z,99.90
2019-03-29T21:22:01.474Z,99.90
2019-03-29T21:24:27.581Z,99.90
2019-03-29T21:26:53.704Z,99.90
2019-03-29T21:29:19.841Z,99.90
2019-03-29T21:31:46.041Z,99.90
2019-03-29T21:34:12.161Z,99.90
2019-03-29T21:36:38.459Z,99.90
2019-03-29T21:39:07.266Z,99.90
2019-03-29T21:41:33.409Z,99.90
2019-03-29T21:43:59.633Z,99.90
2019-03-29T21:46:25.839Z,99.90
2019-03-29T21:48:52.018Z,99.90
2019-03-29T21:51:18.171Z,99.90
2019-03-29T21:53:44.326Z,99.90
2019-03-29T21:56:10.480Z,99.90
2019-03-29T21:58:36.658Z,99.90
2019-03-29T22:01:03.197Z,99.90
2019-03-29T22:03:29.270Z,99.90
2019-03-29T22:05:55.359Z,99.90
2019-03-29T22:08:21.447Z,99.90
2019-03-29T22:10:47.556Z,99.90
2019-03-29T22:13:13.635Z,99.90
2019-03-29T22:15:39.781Z,99.90
2019-03-29T22:18:07.011Z,99.90
2019-03-29T22:20:33.282Z,99.90
2019-03-29T22:22:59.389Z,99.90
2019-03-29T22:25:25.471Z,99.90
2019-03-29T22:27:51.581Z,99.90
2019-03-29T22:30:17.865Z,99.90
2019-03-29T22:32:43.966Z,99.90
2019-03-29T22:35:10.195Z,99.90
2019-03-29T22:37:36.421Z,99.90
2019-03-29T22:40:07.632Z,99.90
2019-03-29T22:42:33.765Z,99.90
2019-03-29T22:44:59.955Z,99.90
2019-03-29T22:47:26.092Z,99.90
2019-03-29T22:49:52.313Z,99.90
2019-03-29T22:52:18.440Z,99.90
2019-03-29T22:54:44.594Z,99.90
2019-03-29T22:57:10.801Z,99.90
2019-03-29T22:59:37.025Z,99.90
2019-03-29T23:02:03.455Z,99.90
2019-03-29T23:04:29.677Z,99.90
2019-03-29T23:06:55.909Z,99.90
2019-03-29T23:09:21.990Z,99.90
2019-03-29T23:11:48.137Z,99.90
2019-03-29T23:14:14.327Z,99.90
2019-03-29T23:16:40.466Z,99.90
2019-03-29T23:19:07.280Z,99.90
2019-03-29T23:21:33.550Z,99.90
2019-03-29T23:23:59.676Z,99.90
2019-03-29T23:26:25.889Z,99.90
2019-03-29T23:28:51.998Z,99.90
2019-03-29T23:31:18.144Z,99.90
2019-03-29T23:33:44.336Z,99.90
2019-03-29T23:36:10.457Z,99.90
2019-03-29T23:38:36.607Z,99.90
2019-03-29T23:41:02.884Z,99.90
2019-03-29T23:43:29.132Z,99.90
2019-03-29T23:45:55.330Z,99.90
2019-03-29T23:48:21.414Z,99.90
2019-03-29T23:50:47.501Z,99.90
2019-03-29T23:53:13.658Z,99.90
2019-03-29T23:55:39.876Z,99.90
2019-03-29T23:58:05.994Z,99.90
